ROMMA est une association bénévole à but non lucratif. Votre soutien est indispensable : ADHERER à ROMMA ou FAIRE un DON

Chamrousse - (38, Isère)

Massif de Belledonne (1800 m)   Longitude: 05° 52' 28" E   Latitude: 45° 06' 28" N Station partenaire n°3
 

Détail journalier du     <<     >>

Température Precipitation Humidité Pression Vent Dir Rafale Dir. rafale
Heure (°C) (mm) (%) (hPa) (km/h) (km/h)
01:00 8.906610156N16NO
02:00 8.706210158NNE13NNE
03:00 8.4070101512NE15NE
04:00 8.3069101412NNE16NE
05:00 8.1071101412NE16NE
06:00 8.1072101412NNE18NNE
07:00 8.0071101411NNE18NNE
08:00 8.3067101510NNE16NNE
09:00 9.706310148NNE15N
10:00 10.105910157N16N
11:00 10.1065101511N21N
12:00 10.9069101410N23N
13:00 10.1078101410NO24NNE
14:00 10.6074101412NO23NO
15:00 11.3069101411ONO26ONO
16:00 13.305710139ONO27OSO
17:00 12.8053101311ONO32ONO
18:00 11.3057101316ONO35O
19:00 10.4066101319ONO34NO
20:00 9.7068101413ONO27ONO
21:00 8.7071101412N23N
22:00 8.5065101511N18N
23:00 8.2064101511NNO18N
minuit 7.707310151NNO10NNO

Graphique du 05-05-2008

 

Serveur OMMA